Time;durP1;ratioP1;P1;durP2;ratioP2;P2;SDS_P1;SDS_P2;PMS_P1;PMS_P2;Temp;Humidity;BMP_temperature;BMP_pressure;BME280_temperature;BME280_humidity;BME280_pressure;Samples;Min_cycle;Max_cycle;Signal;HPM_P1;HPM_P2
2022/05/01 00:26:03;;;;;;;19.27;12.30;;;;;;;8.42;100.00;100358.66;2482730;19;5764121;-82
2022/05/01 00:30:44;;;;;;;18.23;10.90;;;;;;;8.45;100.00;100358.22;12259023;19;20117;-82
2022/05/01 00:45:42;;;;;;;14.88;8.65;;;;;;;8.45;100.00;100339.00;12030706;19;2004709;-83
2022/05/01 00:49:58;;;;;;;;;;;;;;;;;;;;;
2022/05/01 00:54:05;;;;;;;15.65;8.85;;;;;;;8.51;100.00;100345.50;12263912;19;20011;-82
2022/05/01 00:58:22;;;;;;;15.13;9.45;;;;;;;8.51;100.00;100348.25;12239503;19;20010;-83
2022/05/01 01:02:39;;;;;;;16.20;9.73;;;;;;;8.52;100.00;100339.78;12252813;19;20020;-81
2022/05/01 01:06:50;;;;;;;13.50;9.20;;;;;;;8.56;100.00;100334.66;12240566;19;20010;-83
2022/05/01 01:10:58;;;;;;;13.50;8.80;;;;;;;8.53;100.00;100341.44;12253912;19;20673;-83
2022/05/01 01:20:19;;;;;;;17.13;9.27;;;;;;;8.59;100.00;100346.03;12115223;19;2004200;-82
2022/05/01 01:24:22;;;;;;;;;;;;;;;8.57;100.00;100347.34;12211481;19;20052;-83
2022/05/01 01:28:25;;;;;;;13.43;9.05;;;;;;;8.61;100.00;100337.59;12195777;19;19947;-83
2022/05/01 01:32:31;;;;;;;15.00;9.68;;;;;;;8.67;100.00;100336.69;12211868;19;20014;-83
2022/05/01 01:36:37;;;;;;;14.82;9.20;;;;;;;8.72;100.00;100344.28;12216845;19;20774;-83
2022/05/01 01:40:49;;;;;;;14.48;9.05;;;;;;;8.67;100.00;100337.53;12196555;19;20076;-82
2022/05/01 01:44:52;;;;;;;16.30;9.70;;;;;;;8.65;100.00;100336.06;12218007;19;20759;-82
2022/05/01 01:48:54;;;;;;;13.40;9.05;;;;;;;8.66;100.00;100335.84;12189833;19;20027;-81
2022/05/01 01:52:56;;;;;;;15.15;9.55;;;;;;;8.72;100.00;100334.13;12207064;19;20025;-83
2022/05/01 01:56:59;;;;;;;14.65;8.15;;;;;;;8.75;100.00;100344.66;12211527;19;20014;-82
2022/05/01 02:01:01;;;;;;;14.35;8.93;;;;;;;8.76;100.00;100338.09;12190370;19;20011;-82
2022/05/01 02:05:04;;;;;;;18.63;10.48;;;;;;;8.75;100.00;100332.84;12207250;19;20464;-83
2022/05/01 02:28:50;;;;;;;14.80;9.18;;;;;;;8.66;100.00;100313.88;12231012;19;20128;-82
2022/05/01 02:38:17;;;;;;;14.73;8.80;;;;;;;8.63;100.00;100319.81;12177106;19;20018;-81
2022/05/01 02:42:19;;;;;;;15.15;9.43;;;;;;;8.65;100.00;100311.34;12108889;19;2004479;-81
2022/05/01 02:46:21;;;;;;;13.55;8.70;;;;;;;8.63;100.00;100313.50;12200970;19;20365;-82
2022/05/01 02:50:23;;;;;;;12.80;8.48;;;;;;;8.59;100.00;100307.56;12214366;19;20126;-82
2022/05/01 02:54:25;;;;;;;15.95;9.32;;;;;;;8.49;100.00;100312.75;12210014;19;20011;-82
2022/05/01 02:58:31;;;;;;;11.63;8.40;;;;;;;8.37;100.00;100306.28;12188642;19;20362;-82
2022/05/01 03:02:32;;;;;;;18.20;9.23;;;;;;;8.22;100.00;100312.09;12214332;19;20015;-82
2022/05/01 03:06:35;;;;;;;15.00;9.07;;;;;;;8.14;100.00;100310.44;12214505;19;20082;-81
2022/05/01 03:25:07;;;;;;;18.15;9.70;;;;;;;7.98;100.00;100295.34;11989750;19;2004506;-83
2022/05/01 03:44:01;;;;;;;15.77;10.10;;;;;;;7.97;100.00;100281.84;12217722;19;20018;-82
2022/05/01 03:48:06;;;;;;;16.25;10.30;;;;;;;7.89;100.00;100290.34;12203213;19;20007;-82
2022/05/01 03:53:31;;;;;;;;;;;;;;;;;;;;;
2022/05/01 03:57:47;;;;;;;15.73;9.50;;;;;;;7.67;100.00;100279.69;12205327;19;20011;-81
2022/05/01 04:07:28;;;;;;;17.77;9.95;;;;;;;7.55;100.00;100273.22;12067080;19;2004592;-82
2022/05/01 04:17:08;;;;;;;19.23;9.82;;;;;;;7.57;100.00;100275.75;12180839;19;20353;-82
2022/05/01 04:21:58;;;;;;;;;;;;;;;;;;;;;
2022/05/01 04:26:09;;;;;;;16.50;10.57;;;;;;;7.67;100.00;100279.69;12203737;19;20489;-82
2022/05/01 04:30:22;;;;;;;13.90;9.25;;;;;;;7.76;100.00;100281.16;12202156;19;20051;-82
2022/05/01 04:34:44;;;;;;;17.67;10.73;;;;;;;7.86;100.00;100285.31;12187091;19;20089;-82
2022/05/01 04:39:11;;;;;;;19.13;10.63;;;;;;;7.97;100.00;100282.69;12182687;19;20014;-82
2022/05/01 04:48:50;;;;;;;15.20;9.25;;;;;;;8.13;100.00;100294.22;12207248;19;20046;-82
2022/05/01 04:54:01;;;;;;;18.20;9.65;;;;;;;8.18;100.00;100292.47;12186466;19;20488;-82
2022/05/01 04:58:11;;;;;;;16.40;9.40;;;;;;;8.31;100.00;100293.44;12190732;19;20007;-82
2022/05/01 05:02:13;;;;;;;17.67;9.55;;;;;;;8.33;100.00;100297.66;12217058;19;20006;-83
2022/05/01 05:06:15;;;;;;;14.25;9.20;;;;;;;8.35;100.00;100298.25;12218167;19;20013;-84
2022/05/01 05:10:19;;;;;;;16.13;9.68;;;;;;;8.43;100.00;100299.91;12194853;19;20030;-83
2022/05/01 05:19:47;;;;;;;16.02;9.13;;;;;;;8.60;100.00;100303.78;12236473;19;20007;-85
2022/05/01 05:24:18;;;;;;;18.40;9.10;;;;;;;8.62;100.00;100312.63;12201941;19;20006;-83
2022/05/01 05:29:21;;;;;;;14.18;8.52;;;;;;;8.75;99.15;100310.84;12213690;19;20014;-84
2022/05/01 05:33:35;;;;;;;10.95;8.20;;;;;;;8.89;99.37;100312.38;12223310;19;20014;-84
2022/05/01 05:37:39;;;;;;;14.27;8.48;;;;;;;8.98;98.40;100316.50;12188122;19;20066;-83
2022/05/01 05:41:41;;;;;;;12.77;8.80;;;;;;;9.06;98.14;100321.72;12218532;19;20620;-83
2022/05/01 05:45:43;;;;;;;14.75;8.32;;;;;;;9.16;97.96;100323.09;12218120;19;20006;-83
2022/05/01 05:49:44;;;;;;;13.20;8.38;;;;;;;9.28;97.36;100326.78;12196365;19;20473;-83
2022/05/01 05:53:54;;;;;;;14.02;9.13;;;;;;;9.39;97.02;100333.44;12210177;19;20631;-82
2022/05/01 05:57:56;;;;;;;16.93;9.43;;;;;;;9.50;96.52;100336.25;12192238;19;20010;-83
2022/05/01 06:01:57;;;;;;;14.23;8.60;;;;;;;9.58;96.05;100330.44;12220218;19;20018;-83
2022/05/01 06:05:59;;;;;;;12.48;8.30;;;;;;;9.66;95.42;100339.44;12217083;19;20628;-83
2022/05/01 06:10:01;;;;;;;14.13;8.25;;;;;;;9.80;95.03;100335.47;12197779;19;20022;-83
2022/05/01 06:14:03;;;;;;;21.33;8.60;;;;;;;9.91;93.74;100334.69;12219005;19;20031;-82
2022/05/01 06:18:05;;;;;;;14.68;8.68;;;;;;;10.06;93.36;100345.28;12215377;19;20026;-83
2022/05/01 06:22:06;;;;;;;13.13;8.15;;;;;;;10.09;92.85;100344.81;12191884;19;20035;-82
2022/05/01 06:26:08;;;;;;;12.30;8.10;;;;;;;10.20;91.14;100344.00;12214764;19;20007;-82
2022/05/01 06:31:07;;;;;;;10.05;8.32;;;;;;;10.30;91.17;100342.63;12213617;19;20029;-83
2022/05/01 06:41:07;;;;;;;14.50;8.23;;;;;;;10.42;90.09;100338.84;12219903;19;20003;-83
2022/05/01 06:45:34;;;;;;;16.55;9.05;;;;;;;10.40;88.90;100329.94;12237178;19;20014;-83
2022/05/01 06:54:56;;;;;;;13.27;8.52;;;;;;;10.93;88.74;100331.81;12227002;19;20046;-82
2022/05/01 07:03:13;;;;;;;10.93;7.55;;;;;;;11.30;87.60;100353.66;12237585;19;20019;-82
2022/05/01 07:07:20;;;;;;;16.00;8.27;;;;;;;11.26;85.07;100349.66;12218622;19;20006;-83
2022/05/01 07:11:26;;;;;;;14.32;8.45;;;;;;;11.37;85.61;100353.50;12209681;19;20010;-83
2022/05/01 07:15:50;;;;;;;11.85;8.45;;;;;;;11.54;85.39;100357.22;12213969;19;20014;-83
2022/05/01 07:20:16;;;;;;;13.30;8.93;;;;;;;11.66;84.42;100357.19;12186630;19;20014;-83
2022/05/01 07:25:38;;;;;;;14.70;8.30;;;;;;;11.73;83.82;100355.13;12192229;19;20021;-82
2022/05/01 07:30:50;;;;;;;12.17;8.07;;;;;;;11.82;83.19;100342.59;12189740;19;20010;-84
2022/05/01 07:35:21;;;;;;;16.60;8.63;;;;;;;11.91;81.83;100350.53;12224358;19;20010;-84
2022/05/01 07:39:26;;;;;;;12.30;7.40;;;;;;;11.97;81.12;100346.78;12222770;19;20018;-82
2022/05/01 07:43:29;;;;;;;12.25;7.68;;;;;;;12.15;81.23;100348.50;12182472;19;20113;-84
2022/05/01 07:47:31;;;;;;;14.77;7.90;;;;;;;12.42;80.86;100346.81;12208033;19;20043;-84
2022/05/01 07:51:33;;;;;;;14.20;8.10;;;;;;;12.60;79.36;100334.69;12212117;19;20010;-84
2022/05/01 07:55:35;;;;;;;11.13;7.27;;;;;;;12.69;78.70;100335.09;12174128;19;20011;-83
2022/05/01 07:59:38;;;;;;;17.20;8.52;;;;;;;13.11;77.40;100329.94;12207383;19;20031;-84
2022/05/01 08:08:00;;;;;;;14.93;7.95;;;;;;;13.06;73.23;100329.91;12178482;19;20027;-82
2022/05/01 08:12:04;;;;;;;16.67;8.35;;;;;;;12.93;73.76;100330.22;12207748;19;20841;-84
2022/05/01 08:16:06;;;;;;;13.35;8.57;;;;;;;13.13;74.12;100324.19;12178432;19;20018;-83
2022/05/01 08:24:55;;;;;;;13.15;8.50;;;;;;;13.32;72.69;100327.50;12177540;19;20006;-83
2022/05/01 08:28:57;;;;;;;11.38;8.35;;;;;;;13.33;72.81;100334.75;12200129;19;20007;-83
2022/05/01 08:32:59;;;;;;;13.07;7.82;;;;;;;13.45;72.91;100327.16;12209584;19;20060;-83
2022/05/01 08:37:02;;;;;;;10.98;7.85;;;;;;;13.73;73.74;100331.66;12187926;19;20492;-83
2022/05/01 08:41:19;;;;;;;11.98;8.25;;;;;;;14.31;72.84;100326.50;12211659;19;20003;-82
2022/05/01 08:45:26;;;;;;;11.73;7.77;;;;;;;14.72;70.45;100324.97;12214527;19;20480;-83
2022/05/01 08:49:32;;;;;;;14.57;7.68;;;;;;;14.98;69.64;100316.81;12189927;19;20038;-83
2022/05/01 08:53:41;;;;;;;10.98;7.90;;;;;;;14.99;69.56;100318.50;12214114;19;20107;-83
2022/05/01 08:57:58;;;;;;;16.27;8.98;;;;;;;15.03;69.26;100312.16;12199929;19;20017;-83
2022/05/01 09:02:01;;;;;;;12.30;7.53;;;;;;;15.02;68.41;100313.25;12212409;19;20042;-84
2022/05/01 09:06:05;;;;;;;11.20;6.82;;;;;;;14.96;69.04;100311.56;12207054;19;20030;-82
2022/05/01 09:10:11;;;;;;;13.27;8.07;;;;;;;14.94;68.67;100319.31;12196642;19;20015;-82
2022/05/01 09:14:13;;;;;;;11.07;7.90;;;;;;;15.14;68.71;100323.31;12215253;19;20003;-83
2022/05/01 09:18:14;;;;;;;11.30;7.68;;;;;;;15.42;67.80;100322.09;12223056;19;19999;-84
2022/05/01 09:22:19;;;;;;;12.10;7.55;;;;;;;15.61;67.09;100325.25;12197230;19;20011;-81
2022/05/01 09:26:23;;;;;;;11.43;7.60;;;;;;;15.43;67.35;100316.25;12224284;19;20010;-80
2022/05/01 09:30:36;;;;;;;13.50;7.88;;;;;;;15.71;67.13;100319.78;12225933;19;20022;-82
2022/05/01 09:34:43;;;;;;;13.48;7.30;;;;;;;15.83;66.90;100317.59;12205048;19;20011;-82
2022/05/01 09:39:04;;;;;;;11.98;8.25;;;;;;;15.73;64.80;100311.97;12213282;19;20011;-81
2022/05/01 09:43:06;;;;;;;14.23;7.72;;;;;;;15.83;65.68;100317.59;12181617;19;20381;-80
2022/05/01 09:47:08;;;;;;;14.70;7.25;;;;;;;15.94;64.84;100316.53;12208687;19;20082;-80
2022/05/01 09:51:15;;;;;;;11.95;8.02;;;;;;;15.84;64.09;100318.44;12202684;19;20015;-80
2022/05/01 09:55:18;;;;;;;12.63;7.70;;;;;;;15.91;64.96;100319.84;12184352;19;20469;-80
2022/05/01 09:59:44;;;;;;;14.40;8.45;;;;;;;16.24;63.98;100317.72;12196548;19;20353;-81
2022/05/01 10:03:46;;;;;;;12.82;8.20;;;;;;;16.34;63.60;100312.16;12211435;19;20060;-81
2022/05/01 10:07:48;;;;;;;12.47;7.57;;;;;;;16.56;63.09;100313.84;12187708;19;20018;-82
2022/05/01 10:11:54;;;;;;;9.90;7.63;;;;;;;16.74;62.66;100316.06;12210246;19;20010;-81
2022/05/01 10:15:56;;;;;;;14.52;7.93;;;;;;;16.97;61.47;100306.34;12177440;19;20007;-83
2022/05/01 10:19:58;;;;;;;12.60;8.53;;;;;;;17.19;59.75;100302.41;12213688;19;20018;-80
2022/05/01 10:24:01;;;;;;;14.13;7.85;;;;;;;17.05;60.19;100299.38;12203427;19;20489;-81
2022/05/01 10:28:14;;;;;;;12.98;8.07;;;;;;;16.95;59.88;100308.56;12183254;19;20054;-81
2022/05/01 10:32:37;;;;;;;19.42;8.85;;;;;;;17.07;59.02;100297.13;12203343;19;20010;-81
2022/05/01 10:37:27;;;;;;;11.55;8.07;;;;;;;17.03;60.37;100299.66;12189379;19;20019;-81
2022/05/01 10:41:31;;;;;;;14.38;8.77;;;;;;;17.08;58.95;100299.66;12208197;19;20007;-81
2022/05/01 10:45:40;;;;;;;10.32;7.85;;;;;;;17.58;58.69;100296.16;12216083;19;20019;-85
2022/05/01 10:49:44;;;;;;;13.10;8.30;;;;;;;17.84;58.07;100302.50;12190682;19;20007;-82
2022/05/01 10:54:15;;;;;;;12.90;8.30;;;;;;;17.75;57.04;100300.25;12214053;19;20007;-83
2022/05/01 10:58:27;;;;;;;17.00;8.77;;;;;;;17.54;57.81;100296.72;12182459;19;20131;-82
2022/05/01 11:02:35;;;;;;;16.10;8.25;;;;;;;17.55;57.55;100289.22;12211849;19;20015;-80
2022/05/01 11:06:40;;;;;;;11.63;7.72;;;;;;;17.45;57.42;100289.25;12200948;19;20418;-81
2022/05/01 11:10:42;;;;;;;12.60;8.15;;;;;;;17.67;57.58;100286.94;12189555;19;20011;-82
2022/05/01 11:15:10;;;;;;;12.25;7.75;;;;;;;18.07;56.64;100271.13;12218307;19;20010;-82
2022/05/01 11:19:13;;;;;;;10.82;7.90;;;;;;;18.04;55.87;100271.72;12187764;19;20047;-83
2022/05/01 11:23:33;;;;;;;15.65;9.80;;;;;;;17.94;55.51;100266.22;12207954;19;20007;-81
2022/05/01 11:27:52;;;;;;;15.23;9.20;;;;;;;17.88;55.27;100265.41;12209705;19;20027;-80
2022/05/01 11:31:55;;;;;;;14.00;8.75;;;;;;;17.98;55.15;100259.75;12157732;19;20014;-82
2022/05/01 11:35:57;;;;;;;;;;;;;;;18.19;54.64;100263.25;12210613;19;20046;-81
2022/05/01 11:40:01;;;;;;;12.52;7.80;;;;;;;18.27;55.26;100261.81;12192467;19;19915;-82
2022/05/01 11:44:20;;;;;;;11.32;7.50;;;;;;;18.71;55.33;100263.69;12203872;19;20010;-82
2022/05/01 11:48:22;;;;;;;15.38;8.80;;;;;;;18.93;53.38;100257.63;12200554;19;20930;-83
2022/05/01 11:52:24;;;;;;;16.27;9.07;;;;;;;19.15;53.27;100247.91;12187687;19;20006;-83
2022/05/01 12:05:08;;;;;;;19.38;9.30;;;;;;;18.51;53.12;100247.13;12184725;19;20002;-81
2022/05/01 12:09:09;;;;;;;15.60;9.25;;;;;;;18.01;54.57;100246.38;12208233;19;20019;-82
2022/05/01 12:13:27;;;;;;;14.80;10.00;;;;;;;17.76;54.57;100240.63;12188584;19;20034;-81
2022/05/01 12:17:32;;;;;;;10.95;7.88;;;;;;;17.80;54.72;100237.31;12207008;19;20031;-82
2022/05/01 12:21:35;;;;;;;13.27;7.75;;;;;;;17.85;55.16;100237.28;12202867;19;20017;-83
2022/05/01 12:25:40;;;;;;;12.13;8.63;;;;;;;18.01;55.21;100232.44;12190241;19;20010;-83
2022/05/01 12:29:51;;;;;;;13.30;8.32;;;;;;;18.22;54.97;100220.00;12220199;19;20154;-82
2022/05/01 12:33:53;;;;;;;14.02;8.13;;;;;;;18.38;54.25;100223.47;12203065;19;20015;-82
2022/05/01 12:37:58;;;;;;;14.67;7.77;;;;;;;18.38;53.61;100215.13;12215105;19;20003;-82
2022/05/01 12:46:29;;;;;;;13.45;8.38;;;;;;;18.51;53.52;100197.72;12200681;19;20658;-81
2022/05/01 12:50:31;;;;;;;16.70;9.75;;;;;;;18.81;52.28;100201.38;12219360;19;20377;-81
2022/05/01 12:54:33;;;;;;;15.23;9.52;;;;;;;18.99;51.75;100200.59;12213574;19;20017;-84
2022/05/01 12:58:35;;;;;;;12.65;8.57;;;;;;;19.31;51.28;100199.94;12192205;19;20014;-82
2022/05/01 13:02:37;;;;;;;17.33;9.47;;;;;;;19.97;51.07;100191.78;12214852;19;20010;-82
2022/05/01 13:06:40;;;;;;;11.48;9.10;;;;;;;20.86;48.64;100188.88;12201709;19;20033;-81
2022/05/01 13:10:42;;;;;;;;;;;;;;;20.78;48.72;100186.78;12197995;19;20017;-82
2022/05/01 13:14:56;;;;;;;12.52;8.73;;;;;;;21.11;47.90;100178.31;12219443;19;19938;-82
2022/05/01 13:19:06;;;;;;;15.43;8.90;;;;;;;21.35;46.64;100184.50;12203948;19;20436;-82
2022/05/01 13:23:12;;;;;;;13.05;8.77;;;;;;;20.88;47.14;100186.63;12228171;19;20010;-81
2022/05/01 13:27:14;;;;;;;16.52;9.20;;;;;;;20.61;48.43;100170.59;12221219;19;20006;-81
2022/05/01 13:31:18;;;;;;;11.23;8.45;;;;;;;20.22;48.33;100168.16;12199265;19;20010;-82
2022/05/01 13:35:21;;;;;;;10.68;8.45;;;;;;;20.25;48.31;100157.19;12229250;19;20013;-83
2022/05/01 13:39:22;;;;;;;16.97;9.50;;;;;;;19.93;48.28;100159.94;12227042;19;20010;-82
2022/05/01 13:47:45;;;;;;;14.40;8.82;;;;;;;21.84;46.98;100145.63;12222042;19;20007;-81
2022/05/01 13:51:48;;;;;;;14.57;10.17;;;;;;;23.51;42.73;100149.81;12228782;19;20014;-83
2022/05/01 13:55:49;;;;;;;13.73;8.73;;;;;;;24.17;41.23;100143.25;12188488;19;20014;-82
2022/05/01 13:59:51;;;;;;;11.60;8.55;;;;;;;25.25;38.91;100141.09;12200340;19;20027;-82
2022/05/01 14:03:57;;;;;;;12.38;9.65;;;;;;;25.93;38.08;100129.69;12190391;19;20003;-83
2022/05/01 14:07:59;;;;;;;11.13;8.50;;;;;;;26.18;37.35;100125.00;12210657;19;20006;-83
2022/05/01 14:12:08;;;;;;;12.90;9.23;;;;;;;25.63;36.76;100115.63;12230506;19;20045;-82
2022/05/01 14:16:13;;;;;;;12.73;8.23;;;;;;;24.61;38.94;100107.38;12227670;19;20021;-82
2022/05/01 14:20:16;;;;;;;12.95;8.80;;;;;;;23.83;39.92;100106.34;12242909;19;20003;-82
2022/05/01 14:24:19;;;;;;;13.32;8.63;;;;;;;22.89;40.89;100113.41;12223422;19;20010;-82
2022/05/01 14:28:22;;;;;;;15.98;10.23;;;;;;;21.72;42.17;100104.09;12200984;19;20034;-83
2022/05/01 14:32:52;;;;;;;17.23;10.45;;;;;;;20.99;43.26;100114.38;12229108;19;20079;-82
2022/05/01 14:36:57;;;;;;;14.38;8.55;;;;;;;20.36;44.63;100107.47;12201411;19;20006;-82
2022/05/01 14:41:03;;;;;;;12.60;8.77;;;;;;;19.57;45.50;100111.00;12225522;19;20078;-82
2022/05/01 14:45:07;;;;;;;21.58;11.50;;;;;;;19.03;46.62;100103.09;12221157;19;20018;-83
2022/05/01 14:49:18;;;;;;;12.48;9.63;;;;;;;18.55;47.86;100092.72;12198947;19;20026;-82
2022/05/01 14:53:22;;;;;;;13.10;8.82;;;;;;;18.30;48.56;100090.22;12215435;19;20013;-83
2022/05/01 14:57:26;;;;;;;15.57;9.48;;;;;;;18.25;48.84;100090.28;12232044;19;20010;-82
2022/05/01 15:10:12;;;;;;;14.65;9.48;;;;;;;18.54;48.47;100088.28;12212427;19;20006;-81
2022/05/01 15:14:14;;;;;;;11.95;8.25;;;;;;;18.63;48.49;100077.31;12239608;19;20014;-82
2022/05/01 15:18:22;;;;;;;13.43;8.73;;;;;;;18.87;48.81;100072.56;12240983;19;20018;-82
2022/05/01 15:22:48;;;;;;;14.20;9.90;;;;;;;18.96;48.35;100077.50;12213714;19;20006;-81
2022/05/01 15:27:05;;;;;;;17.13;12.23;;;;;;;18.75;48.80;100076.94;12240757;19;20013;-82
2022/05/01 15:31:14;;;;;;;16.50;10.00;;;;;;;18.67;48.71;100073.63;12200013;19;20014;-83
2022/05/01 15:35:15;;;;;;;11.07;7.90;;;;;;;18.58;49.17;100072.59;12229401;19;20029;-82
2022/05/01 15:39:25;;;;;;;11.40;8.80;;;;;;;18.44;49.40;100069.72;12238849;19;20325;-82
2022/05/01 15:43:32;;;;;;;15.27;8.30;;;;;;;18.35;49.99;100065.91;12218296;19;20017;-82
2022/05/01 15:47:35;;;;;;;11.55;7.35;;;;;;;18.27;51.52;100069.34;12220934;19;20006;-82
2022/05/01 15:55:58;;;;;;;12.30;7.93;;;;;;;17.97;52.05;100071.28;12214933;19;20408;-80
2022/05/01 16:00:11;;;;;;;12.90;7.87;;;;;;;17.84;52.89;100065.53;12234436;19;20014;-83
2022/05/01 16:04:13;;;;;;;12.20;8.35;;;;;;;17.66;53.99;100067.88;12210998;19;20011;-82
2022/05/01 16:08:27;;;;;;;11.03;7.80;;;;;;;17.45;56.12;100058.03;12234746;19;20376;-82
2022/05/01 16:12:57;;;;;;;11.30;7.13;;;;;;;17.27;56.24;100057.56;12240876;19;20007;-83
2022/05/01 16:17:19;;;;;;;11.25;7.90;;;;;;;17.07;57.88;100057.69;12212822;19;20018;-81
2022/05/01 16:22:02;;;;;;;13.93;7.03;;;;;;;16.91;59.81;100058.91;12212964;19;20011;-82
2022/05/01 16:26:15;;;;;;;11.02;5.97;;;;;;;16.69;60.26;100051.75;12216398;19;20010;-80
2022/05/01 16:30:20;;;;;;;9.38;6.35;;;;;;;16.46;61.70;100050.44;12213078;19;20003;-81
2022/05/01 16:34:46;;;;;;;11.32;6.60;;;;;;;16.25;63.34;100054.41;12186852;19;20723;-81
2022/05/01 16:38:51;;;;;;;9.57;6.57;;;;;;;16.06;63.47;100055.00;12206406;19;20107;-81
2022/05/01 16:42:53;;;;;;;10.57;6.82;;;;;;;15.92;64.29;100053.88;12182824;19;22239;-81
2022/05/01 16:46:54;;;;;;;10.32;6.35;;;;;;;15.82;64.95;100048.31;12209799;19;20035;-81
2022/05/01 16:50:59;;;;;;;15.38;7.68;;;;;;;15.78;65.26;100039.72;12204686;19;20017;-80
2022/05/01 16:55:01;;;;;;;13.60;8.00;;;;;;;15.75;65.83;100043.06;12190013;19;20010;-82
2022/05/01 16:59:04;;;;;;;11.07;7.20;;;;;;;15.70;66.36;100045.81;12221319;19;20056;-81
2022/05/01 17:03:20;;;;;;;10.57;6.90;;;;;;;15.67;67.51;100041.66;12210531;19;20107;-82
2022/05/01 17:07:41;;;;;;;9.45;7.22;;;;;;;15.63;68.31;100043.31;12199132;19;20010;-81
2022/05/01 17:11:45;;;;;;;9.77;6.40;;;;;;;15.64;69.08;100035.78;12217975;19;20007;-82
2022/05/01 17:15:56;;;;;;;10.40;7.00;;;;;;;15.67;69.05;100043.56;12214565;19;20023;-81
2022/05/01 17:20:10;;;;;;;11.13;7.75;;;;;;;15.69;68.95;100044.16;12200988;19;20013;-82
2022/05/01 17:24:18;;;;;;;8.70;6.72;;;;;;;15.70;68.44;100046.69;12228807;19;20010;-81
2022/05/01 17:28:23;;;;;;;10.93;7.30;;;;;;;15.74;69.15;100037.78;12210379;19;20464;-82
2022/05/01 17:32:50;;;;;;;9.75;7.10;;;;;;;15.67;70.28;100041.66;12218153;19;20376;-81
2022/05/01 17:36:52;;;;;;;11.20;7.25;;;;;;;15.60;69.51;100031.91;12206004;19;20011;-82
2022/05/01 17:40:55;;;;;;;8.48;6.80;;;;;;;15.54;70.03;100038.59;12221306;19;20018;-81
2022/05/01 17:44:58;;;;;;;13.43;7.53;;;;;;;15.45;70.59;100047.47;12222479;19;20006;-81
2022/05/01 17:49:02;;;;;;;10.77;6.63;;;;;;;15.35;71.75;100049.38;12198585;19;20345;-81
2022/05/01 17:53:06;;;;;;;12.02;7.15;;;;;;;15.23;72.28;100052.44;12235427;19;20002;-82
2022/05/01 17:57:08;;;;;;;11.40;7.78;;;;;;;15.10;72.92;100051.00;12236890;19;20010;-82
2022/05/01 18:01:17;;;;;;;10.88;7.68;;;;;;;14.98;73.10;100050.44;12202004;19;20430;-82
2022/05/01 18:09:59;;;;;;;10.65;6.72;;;;;;;14.70;74.46;100048.97;12229601;19;20011;-82
2022/05/01 18:14:09;;;;;;;14.77;7.78;;;;;;;14.54;74.92;100050.81;12212621;19;20013;-83
2022/05/01 18:18:21;;;;;;;15.57;6.88;;;;;;;14.37;76.04;100051.00;12214281;19;20011;-81
2022/05/01 18:22:39;;;;;;;13.68;7.68;;;;;;;14.15;77.19;100059.44;12187052;19;20122;-82
2022/05/01 18:27:00;;;;;;;10.57;7.45;;;;;;;13.93;77.53;100067.88;12216959;19;20014;-81
2022/05/01 18:31:13;;;;;;;13.45;8.75;;;;;;;13.75;77.80;100060.00;12179880;19;20017;-81
2022/05/01 18:35:23;;;;;;;12.02;8.65;;;;;;;13.54;77.84;100065.38;12214223;19;20011;-81
2022/05/01 18:39:48;;;;;;;12.93;8.30;;;;;;;13.37;78.62;100070.19;12224235;19;20007;-85
2022/05/01 18:43:51;;;;;;;22.00;10.98;;;;;;;13.19;79.29;100071.34;12214627;19;20036;-87
2022/05/01 18:47:53;;;;;;;10.95;8.88;;;;;;;13.08;79.70;100084.22;12225441;19;20702;-87
2022/05/01 18:51:57;;;;;;;12.18;9.40;;;;;;;12.92;81.04;100082.41;12199307;19;20037;-89
2022/05/01 18:56:02;;;;;;;12.90;8.90;;;;;;;12.77;81.06;100089.41;12217583;19;20719;-88
2022/05/01 19:00:04;;;;;;;13.98;8.48;;;;;;;12.63;81.11;100090.88;12205764;19;20010;-89
2022/05/01 19:04:06;;;;;;;14.48;8.98;;;;;;;12.49;81.80;100092.34;12197283;19;20034;-87
2022/05/01 19:08:26;;;;;;;16.43;8.87;;;;;;;12.37;82.71;100097.16;12210674;19;20025;-87
2022/05/01 19:12:40;;;;;;;17.13;8.70;;;;;;;12.26;83.32;100101.72;12214116;19;20006;-88
2022/05/01 19:16:48;;;;;;;16.08;9.27;;;;;;;12.14;83.88;100096.28;12190628;19;20527;-89
2022/05/01 19:21:03;;;;;;;16.58;8.50;;;;;;;12.03;84.21;100108.25;12217023;19;20506;-88
2022/05/01 19:30:07;;;;;;;13.90;9.15;;;;;;;11.75;86.42;100115.53;12204348;19;20011;-87
2022/05/01 19:34:40;;;;;;;12.07;8.30;;;;;;;11.63;88.57;100120.28;12190139;19;20544;-88
2022/05/01 19:38:53;;;;;;;14.40;9.35;;;;;;;11.52;89.06;100122.03;12216347;19;20014;-87
2022/05/01 19:43:15;;;;;;;15.18;8.50;;;;;;;11.41;89.84;100125.66;12185298;19;20007;-88
2022/05/01 19:52:37;;;;;;;16.15;7.93;;;;;;;11.19;90.71;100122.78;12212899;19;20007;-87
2022/05/01 19:56:20;;;;;;;11.93;8.48;;;;;;;11.11;90.82;100117.66;12195523;19;20023;-88
2022/05/01 20:00:51;;;;;;;11.13;7.63;;;;;;;11.04;91.37;100114.22;12222387;19;20007;-88
2022/05/01 20:04:54;;;;;;;15.13;8.52;;;;;;;10.95;91.29;100109.09;12188877;19;20380;-89
2022/05/01 20:08:57;;;;;;;12.13;8.60;;;;;;;10.90;91.59;100114.47;12227873;19;20020;-88
2022/05/01 20:12:59;;;;;;;15.63;8.95;;;;;;;10.84;92.35;100112.72;12205831;19;20018;-87
2022/05/01 20:17:05;;;;;;;12.50;9.02;;;;;;;10.83;92.03;100105.53;12203671;19;20009;-88
2022/05/01 20:21:15;;;;;;;13.45;9.68;;;;;;;10.80;92.29;100111.53;12217189;19;20081;-87
2022/05/01 20:25:38;;;;;;;14.60;8.70;;;;;;;10.77;92.41;100114.78;12199794;19;20007;-86
2022/05/01 20:29:46;;;;;;;13.93;8.60;;;;;;;10.69;93.44;100107.72;12234692;19;20017;-87
2022/05/01 20:33:54;;;;;;;15.25;8.45;;;;;;;10.63;94.34;100113.38;12232988;19;20022;-87
2022/05/01 20:38:18;;;;;;;14.13;8.23;;;;;;;10.55;95.18;100105.47;12205358;19;20543;-89
2022/05/01 20:42:48;;;;;;;13.43;8.55;;;;;;;10.46;95.46;100102.25;12218135;19;20002;-88
2022/05/01 20:47:38;;;;;;;13.07;8.23;;;;;;;10.36;97.79;100108.38;12213943;19;20034;-87
2022/05/01 20:51:53;;;;;;;12.60;7.93;;;;;;;10.28;97.74;100100.47;12221944;19;20007;-85
2022/05/01 20:55:55;;;;;;;17.85;9.88;;;;;;;10.22;98.98;100098.66;12193542;19;20011;-86
2022/05/01 20:59:58;;;;;;;15.43;8.73;;;;;;;10.19;100.00;100112.91;12209743;19;20010;-86
2022/05/01 21:04:03;;;;;;;14.88;9.02;;;;;;;10.19;99.03;100097.22;12199327;19;20014;-86
2022/05/01 21:08:09;;;;;;;13.95;8.80;;;;;;;10.20;98.41;100098.91;12222744;19;20021;-87
2022/05/01 21:12:12;;;;;;;17.90;9.52;;;;;;;10.20;100.00;100098.03;12218275;19;20014;-87
2022/05/01 21:16:14;;;;;;;;;;;;;;;10.21;100.00;100095.06;12190316;19;20518;-86
2022/05/01 21:20:16;;;;;;;13.13;9.05;;;;;;;10.21;100.00;100092.31;12215519;19;20503;-85
2022/05/01 21:24:18;;;;;;;14.40;8.98;;;;;;;10.20;100.00;100087.88;12211255;19;20014;-85
2022/05/01 21:32:40;;;;;;;15.80;9.13;;;;;;;10.14;100.00;100079.72;12212848;19;20014;-87
2022/05/01 21:36:43;;;;;;;21.97;10.20;;;;;;;10.14;100.00;100086.09;12206407;19;20014;-86
2022/05/01 21:41:03;;;;;;;14.90;8.48;;;;;;;10.18;100.00;100080.94;12195487;19;20380;-88
2022/05/01 21:45:05;;;;;;;15.68;8.70;;;;;;;10.17;100.00;100079.25;12208463;19;20010;-85
2022/05/01 21:49:06;;;;;;;14.43;9.13;;;;;;;10.12;100.00;100079.16;12192770;19;20006;-86
2022/05/01 21:53:10;;;;;;;12.93;8.18;;;;;;;10.11;100.00;100082.97;12210776;19;20010;-87
2022/05/01 21:57:12;;;;;;;12.68;8.20;;;;;;;10.15;100.00;100076.75;12212178;19;20373;-86
2022/05/01 22:01:15;;;;;;;20.83;11.27;;;;;;;10.13;100.00;100078.06;12188205;19;20845;-86
2022/05/01 22:05:17;;;;;;;20.40;9.65;;;;;;;10.07;100.00;100082.63;12206678;19;20007;-84
2022/05/01 22:09:18;;;;;;;12.02;8.13;;;;;;;10.01;100.00;100076.16;12218058;19;20342;-85
2022/05/01 22:13:20;;;;;;;19.55;9.30;;;;;;;9.95;100.00;100073.53;12189822;19;20006;-83